createdAt,value
2023-02-13T00:02:56.152Z,3.00
2023-02-13T00:05:57.713Z,3.20
2023-02-13T00:08:59.222Z,3.30
2023-02-13T00:12:00.730Z,3.20
2023-02-13T00:15:02.712Z,2.80
2023-02-13T00:18:04.553Z,3.08
2023-02-13T00:21:07.882Z,3.17
2023-02-13T00:24:09.505Z,3.40
2023-02-13T00:27:11.050Z,3.42
2023-02-13T00:30:13.072Z,2.75
2023-02-13T00:33:14.644Z,2.88
2023-02-13T00:36:18.839Z,2.67
2023-02-13T00:39:20.334Z,2.78
2023-02-13T00:42:26.344Z,2.42
2023-02-13T00:45:27.894Z,2.25
2023-02-13T00:48:30.461Z,2.38
2023-02-13T00:51:32.045Z,2.33
2023-02-13T00:54:33.561Z,3.13
2023-02-13T00:57:35.076Z,2.47
2023-02-13T01:00:37.311Z,2.70
2023-02-13T01:03:39.045Z,2.08
2023-02-13T01:06:40.618Z,2.33
2023-02-13T01:09:42.255Z,2.30
2023-02-13T01:12:43.751Z,2.83
2023-02-13T01:15:45.846Z,2.85
2023-02-13T01:18:47.386Z,2.25
2023-02-13T01:21:48.870Z,2.15
2023-02-13T01:24:50.396Z,2.35
2023-02-13T01:27:51.976Z,2.17
2023-02-13T01:30:54.956Z,2.65
2023-02-13T01:33:58.040Z,2.30
2023-02-13T01:36:59.527Z,1.85
2023-02-13T01:40:01.122Z,2.20
2023-02-13T01:43:02.623Z,2.47
2023-02-13T01:46:04.781Z,2.03
2023-02-13T01:49:13.827Z,2.17
2023-02-13T01:52:15.391Z,2.17
2023-02-13T01:55:17.199Z,2.13
2023-02-13T01:58:20.667Z,2.03
2023-02-13T02:01:22.295Z,2.35
2023-02-13T02:04:34.019Z,1.77
2023-02-13T02:07:36.360Z,2.22
2023-02-13T02:10:37.868Z,2.70
2023-02-13T02:13:39.365Z,2.45
2023-02-13T02:16:40.885Z,2.60
2023-02-13T02:20:04.927Z,2.63
2023-02-13T02:23:28.305Z,2.08
2023-02-13T02:26:44.867Z,1.80
2023-02-13T02:30:16.594Z,1.92
2023-02-13T02:33:18.903Z,2.50
2023-02-13T02:36:57.714Z,2.45
2023-02-13T02:40:03.216Z,2.42
2023-02-13T02:43:23.379Z,2.55
2023-02-13T02:46:37.872Z,2.30
2023-02-13T02:49:58.557Z,2.00
2023-02-13T02:53:07.560Z,2.30
2023-02-13T02:56:24.425Z,2.35
2023-02-13T02:59:44.584Z,1.98
2023-02-13T03:03:04.752Z,2.30
2023-02-13T03:06:21.315Z,2.72
2023-02-13T03:09:46.104Z,2.85
2023-02-13T03:13:19.924Z,4.20
2023-02-13T03:16:42.074Z,2.65
2023-02-13T03:20:16.685Z,2.70
2023-02-13T03:23:33.178Z,2.50
2023-02-13T03:27:04.768Z,3.28
2023-02-13T03:30:59.336Z,3.00
2023-02-13T03:34:19.550Z,3.03
2023-02-13T03:37:45.697Z,2.78
2023-02-13T03:41:19.836Z,3.03
2023-02-13T03:44:35.853Z,2.53
2023-02-13T03:47:37.387Z,2.65
2023-02-13T03:50:39.365Z,2.67
2023-02-13T03:53:40.901Z,2.70
2023-02-13T03:57:00.933Z,3.05
2023-02-13T04:00:03.329Z,3.00
2023-02-13T04:03:14.785Z,3.20
2023-02-13T04:06:21.840Z,2.92
2023-02-13T04:09:24.860Z,2.72
2023-02-13T04:12:47.796Z,3.22
2023-02-13T04:15:52.812Z,3.17
2023-02-13T04:18:54.373Z,3.50
2023-02-13T04:22:00.052Z,2.85
2023-02-13T04:25:01.550Z,2.45
2023-02-13T04:28:03.186Z,2.67
2023-02-13T04:31:04.880Z,2.53
2023-02-13T04:34:06.509Z,2.90
2023-02-13T04:37:07.993Z,2.65
2023-02-13T04:40:09.900Z,3.08
2023-02-13T04:43:11.467Z,3.00
2023-02-13T04:46:13.061Z,2.80
2023-02-13T04:49:14.574Z,3.28
2023-02-13T04:52:16.038Z,2.90
2023-02-13T04:55:17.543Z,2.28
2023-02-13T04:58:19.051Z,2.97
2023-02-13T05:01:20.647Z,2.55
2023-02-13T05:04:22.337Z,2.42
2023-02-13T05:07:23.892Z,3.28
2023-02-13T05:10:25.396Z,2.80
2023-02-13T05:13:26.905Z,2.92
2023-02-13T05:16:28.371Z,2.78
2023-02-13T05:19:29.857Z,3.38
2023-02-13T05:22:49.736Z,3.10
2023-02-13T05:25:51.231Z,2.83
2023-02-13T05:29:11.399Z,3.38
2023-02-13T05:32:12.994Z,2.58
2023-02-13T05:35:14.638Z,2.03
2023-02-13T05:38:16.132Z,3.40
2023-02-13T05:41:17.631Z,3.33
2023-02-13T05:44:19.166Z,3.70
2023-02-13T05:47:20.673Z,3.95
2023-02-13T05:50:22.626Z,3.95
2023-02-13T05:53:24.188Z,4.40
2023-02-13T05:56:25.653Z,3.88
2023-02-13T05:59:27.195Z,3.85
2023-02-13T06:02:28.691Z,3.40
2023-02-13T06:05:30.214Z,4.22
2023-02-13T06:08:31.801Z,3.65
2023-02-13T06:11:33.276Z,5.30
2023-02-13T06:14:34.746Z,5.40
2023-02-13T06:17:36.245Z,5.43
2023-02-13T06:20:37.856Z,5.93
2023-02-13T06:23:39.368Z,5.47
2023-02-13T06:26:40.928Z,5.10
2023-02-13T06:29:42.423Z,4.82
2023-02-13T06:32:43.985Z,4.97
2023-02-13T06:35:45.511Z,4.68
2023-02-13T06:38:47.017Z,4.85
2023-02-13T06:41:48.574Z,5.30
2023-02-13T06:44:50.141Z,6.68
2023-02-13T06:47:51.857Z,7.30
2023-02-13T06:50:53.546Z,6.20
2023-02-13T06:53:55.046Z,11.55
2023-02-13T06:56:56.564Z,4.68
2023-02-13T06:59:58.086Z,5.15
2023-02-13T07:03:03.857Z,4.90
2023-02-13T07:06:05.527Z,4.93
2023-02-13T07:09:07.073Z,4.38
2023-02-13T07:12:08.574Z,4.95
2023-02-13T07:15:10.168Z,9.50
2023-02-13T07:22:07.921Z,15.00
2023-02-13T07:25:09.428Z,21.77
2023-02-13T07:28:11.314Z,19.55
2023-02-13T07:31:12.932Z,15.10
2023-02-13T07:34:14.572Z,14.10
2023-02-13T07:37:16.076Z,10.05
2023-02-13T07:40:17.615Z,7.38
2023-02-13T07:43:19.166Z,6.03
2023-02-13T07:46:21.781Z,7.32
2023-02-13T07:49:23.357Z,5.63
2023-02-13T07:52:24.867Z,5.53
2023-02-13T07:55:26.993Z,5.13
2023-02-13T07:58:28.507Z,4.88
2023-02-13T08:01:30.100Z,5.28
2023-02-13T08:04:31.668Z,3.65
2023-02-13T08:07:33.170Z,4.22
2023-02-13T08:10:53.244Z,5.18
2023-02-13T08:13:54.751Z,5.13
2023-02-13T08:16:56.730Z,7.55
2023-02-13T08:19:58.281Z,5.78
2023-02-13T08:23:04.379Z,8.18
2023-02-13T08:26:05.962Z,7.10
2023-02-13T08:29:07.776Z,5.50
2023-02-13T08:32:09.337Z,3.83
2023-02-13T08:35:11.043Z,5.65
2023-02-13T08:38:12.572Z,4.07
2023-02-13T08:41:14.427Z,3.50
2023-02-13T08:44:15.968Z,6.63
2023-02-13T08:47:17.529Z,8.50
2023-02-13T08:50:19.109Z,8.85
2023-02-13T08:53:20.635Z,4.80
2023-02-13T08:56:22.350Z,3.60
2023-02-13T08:59:23.862Z,3.70
2023-02-13T09:02:25.416Z,4.00
2023-02-13T09:05:27.415Z,3.47
2023-02-13T09:08:28.945Z,3.50
2023-02-13T09:11:30.455Z,4.40
2023-02-13T09:14:32.106Z,5.45
2023-02-13T09:17:33.717Z,6.45
2023-02-13T09:20:36.144Z,6.05
2023-02-13T09:23:40.082Z,6.60
2023-02-13T09:26:41.626Z,5.85
2023-02-13T09:29:43.188Z,4.50
2023-02-13T09:32:44.648Z,6.57
2023-02-13T09:35:46.152Z,6.30
2023-02-13T09:38:48.322Z,6.63
2023-02-13T09:44:53.234Z,9.63
2023-02-13T09:47:54.687Z,6.88
2023-02-13T09:50:57.133Z,6.55
2023-02-13T09:54:08.369Z,6.47
2023-02-13T09:57:29.030Z,6.45
2023-02-13T10:00:34.568Z,7.05
2023-02-13T10:03:44.972Z,6.80
2023-02-13T10:06:50.293Z,7.18
2023-02-13T10:09:58.261Z,7.75
2023-02-13T10:13:02.936Z,8.55
2023-02-13T10:16:12.646Z,8.60
2023-02-13T10:19:19.975Z,9.82
2023-02-13T10:22:43.266Z,8.70
2023-02-13T10:26:05.854Z,10.73
2023-02-13T10:29:26.931Z,9.48
2023-02-13T10:32:52.065Z,9.20
2023-02-13T10:36:19.565Z,11.93
2023-02-13T10:39:26.173Z,10.20
2023-02-13T10:42:46.237Z,9.32
2023-02-13T10:46:18.747Z,9.88
2023-02-13T10:49:47.825Z,9.55
2023-02-13T10:52:56.544Z,8.00
2023-02-13T10:56:17.053Z,11.38
2023-02-13T10:59:36.172Z,10.45
2023-02-13T11:02:38.748Z,7.95
2023-02-13T11:05:40.373Z,8.68
2023-02-13T11:08:46.401Z,10.20
2023-02-13T11:11:47.905Z,20.77
2023-02-13T11:15:03.466Z,9.85
2023-02-13T11:18:18.709Z,14.85
2023-02-13T11:21:21.835Z,11.52
2023-02-13T11:24:24.473Z,15.35
2023-02-13T11:27:28.497Z,12.00
2023-02-13T11:30:37.621Z,10.32
2023-02-13T11:33:39.272Z,13.98
2023-02-13T11:36:40.769Z,11.32
2023-02-13T11:39:43.117Z,10.63
2023-02-13T11:45:45.941Z,8.70
2023-02-13T11:49:03.202Z,7.27
2023-02-13T11:52:06.357Z,8.40
2023-02-13T11:55:36.201Z,7.65
2023-02-13T11:58:37.903Z,7.88
2023-02-13T12:01:39.383Z,9.47
2023-02-13T12:04:40.942Z,6.28
2023-02-13T12:07:43.327Z,7.70
2023-02-13T12:10:44.825Z,8.50
2023-02-13T12:13:46.394Z,10.52
2023-02-13T12:17:31.487Z,8.67
2023-02-13T12:20:55.965Z,8.63
2023-02-13T12:24:11.332Z,9.43
2023-02-13T12:27:29.618Z,12.48
2023-02-13T12:30:34.203Z,10.40
2023-02-13T12:33:54.514Z,9.65
2023-02-13T12:37:05.653Z,9.40
2023-02-13T12:40:34.914Z,8.48
2023-02-13T12:44:01.394Z,10.15
2023-02-13T12:47:05.840Z,8.60
2023-02-13T12:50:28.588Z,8.88
2023-02-13T12:53:37.699Z,8.40
2023-02-13T12:56:51.454Z,7.60
2023-02-13T13:00:31.608Z,8.80
2023-02-13T13:03:54.577Z,8.75
2023-02-13T13:07:07.438Z,9.40
2023-02-13T13:10:33.538Z,9.73
2023-02-13T13:14:03.436Z,9.90
2023-02-13T13:17:30.069Z,11.07
2023-02-13T13:20:51.563Z,9.73
2023-02-13T13:24:01.027Z,10.93
2023-02-13T13:27:02.602Z,10.13
2023-02-13T13:30:06.396Z,8.75
2023-02-13T13:33:21.814Z,9.77
2023-02-13T13:36:41.118Z,10.57
2023-02-13T13:39:49.954Z,11.02
2023-02-13T13:43:20.738Z,10.40
2023-02-13T13:46:58.698Z,10.80
2023-02-13T13:50:00.314Z,11.50
2023-02-13T13:53:16.026Z,11.30
2023-02-13T13:56:17.510Z,12.02
2023-02-13T13:59:19.944Z,11.02
2023-02-13T14:02:21.332Z,13.52
2023-02-13T14:05:30.540Z,14.43
2023-02-13T14:08:41.224Z,11.73
2023-02-13T14:11:46.520Z,14.98
2023-02-13T14:14:49.094Z,13.75
2023-02-13T14:17:51.452Z,12.68
2023-02-13T14:20:54.913Z,14.27
2023-02-13T14:24:00.671Z,14.43
2023-02-13T14:27:06.302Z,14.40
2023-02-13T14:30:42.739Z,15.23
2023-02-13T14:33:44.242Z,15.32
2023-02-13T14:36:49.650Z,14.30
2023-02-13T14:40:11.415Z,15.43
2023-02-13T14:43:24.845Z,20.45
2023-02-13T14:46:38.122Z,19.27
2023-02-13T14:49:40.005Z,20.02
2023-02-13T14:52:43.120Z,20.13
2023-02-13T14:55:45.474Z,21.02
2023-02-13T15:02:00.788Z,19.70
2023-02-13T15:05:04.839Z,18.23
2023-02-13T15:08:13.358Z,17.50
2023-02-13T15:11:38.159Z,17.08
2023-02-13T15:14:39.683Z,17.88
2023-02-13T15:17:41.265Z,17.95
2023-02-13T15:20:42.772Z,19.52
2023-02-13T15:23:44.287Z,17.52
2023-02-13T15:26:50.509Z,19.45
2023-02-13T15:30:20.070Z,19.20
2023-02-13T15:33:22.799Z,25.85
2023-02-13T15:36:25.767Z,25.20
2023-02-13T15:39:29.569Z,24.60
2023-02-13T15:42:40.021Z,22.58
2023-02-13T15:45:41.509Z,18.90
2023-02-13T15:48:43.163Z,20.17
2023-02-13T15:51:45.716Z,19.75
2023-02-13T15:57:54.706Z,20.00
2023-02-13T16:00:56.393Z,22.48
2023-02-13T16:04:03.959Z,17.90
2023-02-13T16:07:09.026Z,24.15
2023-02-13T16:10:29.366Z,22.17
2023-02-13T16:13:30.871Z,25.02
2023-02-13T16:16:53.980Z,24.13
2023-02-13T16:20:11.430Z,23.80
2023-02-13T16:23:17.424Z,23.35
2023-02-13T16:26:19.463Z,22.85
2023-02-13T16:29:23.634Z,18.50
2023-02-13T16:32:32.887Z,22.00
2023-02-13T16:35:35.678Z,21.17
2023-02-13T16:38:37.918Z,29.73
2023-02-13T16:41:39.374Z,22.77
2023-02-13T16:44:40.841Z,25.30
2023-02-13T16:47:42.344Z,28.15
2023-02-13T16:50:43.852Z,28.40
2023-02-13T16:53:45.342Z,36.05
2023-02-13T16:57:06.389Z,29.65
2023-02-13T17:00:28.367Z,35.00
2023-02-13T17:03:31.618Z,27.88
2023-02-13T17:06:33.106Z,28.10
2023-02-13T17:09:34.613Z,27.05
2023-02-13T17:12:37.912Z,31.13
2023-02-13T17:15:43.973Z,27.38
2023-02-13T17:18:45.492Z,31.35
2023-02-13T17:21:47.003Z,25.83
2023-02-13T17:24:48.509Z,32.10
2023-02-13T17:27:50.943Z,41.40
2023-02-13T17:30:54.140Z,26.73
2023-02-13T17:33:55.661Z,30.75
2023-02-13T17:36:57.153Z,27.70
2023-02-13T17:39:58.856Z,28.83
2023-02-13T17:43:00.404Z,26.60
2023-02-13T17:46:01.967Z,25.23
2023-02-13T17:49:04.392Z,24.35
2023-02-13T17:52:05.884Z,23.90
2023-02-13T17:55:14.643Z,22.65
2023-02-13T17:58:16.147Z,22.08
2023-02-13T18:01:17.679Z,24.08
2023-02-13T18:04:19.213Z,25.95
2023-02-13T18:07:20.885Z,27.20
2023-02-13T18:10:23.447Z,34.80
2023-02-13T18:13:24.947Z,28.20
2023-02-13T18:16:26.427Z,27.55
2023-02-13T18:19:27.948Z,25.42
2023-02-13T18:22:29.470Z,26.65
2023-02-13T18:25:31.023Z,26.45
2023-02-13T18:28:32.581Z,25.90
2023-02-13T18:31:34.175Z,27.73
2023-02-13T18:34:35.815Z,29.98
2023-02-13T18:37:39.144Z,36.10
2023-02-13T18:40:41.084Z,32.35
2023-02-13T18:43:42.658Z,31.80
2023-02-13T18:46:44.154Z,36.40
2023-02-13T18:49:46.444Z,34.58
2023-02-13T18:52:47.963Z,32.67
2023-02-13T18:55:49.481Z,33.38
2023-02-13T18:58:51.129Z,33.33
2023-02-13T19:01:52.657Z,35.13
2023-02-13T19:04:54.301Z,31.73
2023-02-13T19:07:55.790Z,28.98
2023-02-13T19:11:00.571Z,30.80
2023-02-13T19:14:02.470Z,28.10
2023-02-13T19:17:03.990Z,29.27
2023-02-13T19:20:06.166Z,24.92
2023-02-13T19:23:07.659Z,22.92
2023-02-13T19:26:13.507Z,21.15
2023-02-13T19:29:15.038Z,19.65
2023-02-13T19:32:16.603Z,18.05
2023-02-13T19:35:18.096Z,18.60
2023-02-13T19:38:19.552Z,21.98
2023-02-13T19:41:21.111Z,39.45
2023-02-13T19:44:22.620Z,32.33
2023-02-13T19:47:24.122Z,28.80
2023-02-13T19:50:25.635Z,27.77
2023-02-13T19:53:27.109Z,26.17
2023-02-13T19:56:28.986Z,26.27
2023-02-13T19:59:32.528Z,26.33
2023-02-13T20:02:34.185Z,21.05
2023-02-13T20:05:39.285Z,11.70
2023-02-13T20:08:42.888Z,15.95
2023-02-13T20:11:45.479Z,13.82
2023-02-13T20:14:46.979Z,13.77
2023-02-13T20:17:48.563Z,11.05
2023-02-13T20:20:50.062Z,11.32
2023-02-13T20:23:51.600Z,13.75
2023-02-13T20:26:56.378Z,14.43
2023-02-13T20:30:06.388Z,11.23
2023-02-13T20:33:08.847Z,11.18
2023-02-13T20:36:10.585Z,9.05
2023-02-13T20:39:12.126Z,10.80
2023-02-13T20:42:13.589Z,10.25
2023-02-13T20:45:15.128Z,9.43
2023-02-13T20:48:16.892Z,8.65
2023-02-13T20:51:18.468Z,8.52
2023-02-13T20:54:19.973Z,9.13
2023-02-13T20:57:21.452Z,9.30
2023-02-13T21:00:23.009Z,7.90
2023-02-13T21:03:24.524Z,7.65
2023-02-13T21:06:30.807Z,7.78
2023-02-13T21:09:32.328Z,7.18
2023-02-13T21:12:34.886Z,7.05
2023-02-13T21:15:37.378Z,7.57
2023-02-13T21:18:39.169Z,7.28
2023-02-13T21:21:44.063Z,5.80
2023-02-13T21:24:45.992Z,5.95
2023-02-13T21:27:47.512Z,6.17
2023-02-13T21:30:49.049Z,6.57
2023-02-13T21:33:50.838Z,7.40
2023-02-13T21:36:52.355Z,6.13
2023-02-13T21:39:53.920Z,5.90
2023-02-13T21:42:55.420Z,6.18
2023-02-13T21:46:12.083Z,5.95
2023-02-13T21:49:15.822Z,6.25
2023-02-13T21:52:18.265Z,10.02
2023-02-13T21:55:19.795Z,6.47
2023-02-13T21:58:21.287Z,6.20
2023-02-13T22:01:26.778Z,6.32
2023-02-13T22:04:28.619Z,6.45
2023-02-13T22:07:30.314Z,8.80
2023-02-13T22:10:31.840Z,8.27
2023-02-13T22:13:36.288Z,6.05
2023-02-13T22:16:38.236Z,5.65
2023-02-13T22:19:39.750Z,5.93
2023-02-13T22:22:41.233Z,6.03
2023-02-13T22:25:50.292Z,6.18
2023-02-13T22:28:51.979Z,4.88
2023-02-13T22:31:53.685Z,5.95
2023-02-13T22:34:55.311Z,4.65
2023-02-13T22:37:56.801Z,4.68
2023-02-13T22:41:07.549Z,4.90
2023-02-13T22:44:09.063Z,5.00
2023-02-13T22:47:10.620Z,5.78
2023-02-13T22:50:12.109Z,5.15
2023-02-13T22:53:13.646Z,4.32
2023-02-13T22:56:15.147Z,3.80
2023-02-13T22:59:16.664Z,3.45
2023-02-13T23:02:18.382Z,3.45
2023-02-13T23:05:19.927Z,3.67
2023-02-13T23:08:21.389Z,3.55
2023-02-13T23:11:43.448Z,3.78
2023-02-13T23:14:44.967Z,3.75
2023-02-13T23:18:05.156Z,4.03
2023-02-13T23:21:06.942Z,4.53
2023-02-13T23:24:08.684Z,3.30
2023-02-13T23:27:10.270Z,4.00
2023-02-13T23:30:12.491Z,3.33
2023-02-13T23:33:14.014Z,2.85
2023-02-13T23:36:15.490Z,4.18
2023-02-13T23:39:17.035Z,3.22
2023-02-13T23:42:18.561Z,4.65
2023-02-13T23:45:20.079Z,4.78
2023-02-13T23:48:21.598Z,4.80
2023-02-13T23:51:25.486Z,4.53
2023-02-13T23:54:27.083Z,5.10
2023-02-13T23:57:28.604Z,2.88
